Metar z połowy godziny Komunikat METAR ze strony awiacja.imgw.pl Metar G30 EPLB METAR EPLB 162230Z 13006KT 9999 OVC015 M01/M02 Q1020 =